sensor_id;sensor_type;location;lat;lon;timestamp;pressure;altitude;pressure_sealevel;temperature;humidity
71795;BME280;59641;45.188;5.712;2023-02-18T00:01:15;100729.38;;;13.17;48.46
71795;BME280;59641;45.188;5.712;2023-02-18T00:03:41;100723.34;;;13.15;48.75
71795;BME280;59641;45.188;5.712;2023-02-18T00:06:20;100725.22;;;13.15;48.95
71795;BME280;59641;45.188;5.712;2023-02-18T00:08:47;100722.13;;;13.11;48.81
71795;BME280;59641;45.188;5.712;2023-02-18T00:11:13;100721.47;;;13.09;48.62
71795;BME280;59641;45.188;5.712;2023-02-18T00:13:39;100717.09;;;13.08;49.18
71795;BME280;59641;45.188;5.712;2023-02-18T00:16:09;100717.31;;;13.07;48.98
71795;BME280;59641;45.188;5.712;2023-02-18T00:18:35;100715.66;;;13.06;49.13
71795;BME280;59641;45.188;5.712;2023-02-18T00:21:06;100716.50;;;13.06;48.67
71795;BME280;59641;45.188;5.712;2023-02-18T00:23:32;100701.97;;;13.00;48.84
71795;BME280;59641;45.188;5.712;2023-02-18T00:26:17;100718.13;;;13.00;49.21
71795;BME280;59641;45.188;5.712;2023-02-18T00:28:43;100714.81;;;12.98;49.19
71795;BME280;59641;45.188;5.712;2023-02-18T00:31:12;100715.03;;;12.97;49.64
71795;BME280;59641;45.188;5.712;2023-02-18T00:33:38;100707.75;;;12.97;49.44
71795;BME280;59641;45.188;5.712;2023-02-18T00:36:06;100710.66;;;12.96;49.44
71795;BME280;59641;45.188;5.712;2023-02-18T00:38:32;100718.94;;;12.94;49.53
71795;BME280;59641;45.188;5.712;2023-02-18T00:40:58;100719.34;;;12.91;49.26
71795;BME280;59641;45.188;5.712;2023-02-18T00:43:24;100721.44;;;12.89;49.79
71795;BME280;59641;45.188;5.712;2023-02-18T00:45:50;100718.28;;;12.86;49.77
71795;BME280;59641;45.188;5.712;2023-02-18T00:48:15;100721.81;;;12.86;49.54
71795;BME280;59641;45.188;5.712;2023-02-18T00:50:40;100718.28;;;12.86;49.84
71795;BME280;59641;45.188;5.712;2023-02-18T00:53:06;100717.47;;;12.85;49.58
71795;BME280;59641;45.188;5.712;2023-02-18T00:55:31;100722.03;;;12.85;49.65
71795;BME280;59641;45.188;5.712;2023-02-18T00:57:57;100728.66;;;12.82;49.42
71795;BME280;59641;45.188;5.712;2023-02-18T01:00:22;100724.50;;;12.79;49.29
71795;BME280;59641;45.188;5.712;2023-02-18T01:02:50;100725.50;;;12.78;49.45
71795;BME280;59641;45.188;5.712;2023-02-18T01:05:19;100719.31;;;12.78;49.18
71795;BME280;59641;45.188;5.712;2023-02-18T01:07:45;100718.25;;;12.79;49.22
71795;BME280;59641;45.188;5.712;2023-02-18T01:10:11;100717.44;;;12.78;49.17
71795;BME280;59641;45.188;5.712;2023-02-18T01:12:36;100713.91;;;12.78;49.26
71795;BME280;59641;45.188;5.712;2023-02-18T01:15:04;100711.41;;;12.76;49.03
71795;BME280;59641;45.188;5.712;2023-02-18T01:17:29;100713.28;;;12.76;49.06
71795;BME280;59641;45.188;5.712;2023-02-18T01:19:55;100711.41;;;12.76;49.28
71795;BME280;59641;45.188;5.712;2023-02-18T01:22:20;100705.84;;;12.78;49.06
71795;BME280;59641;45.188;5.712;2023-02-18T01:24:45;100701.28;;;12.78;49.14
71795;BME280;59641;45.188;5.712;2023-02-18T01:27:11;100691.94;;;12.81;49.49
71795;BME280;59641;45.188;5.712;2023-02-18T01:29:36;100696.09;;;12.84;49.39
71795;BME280;59641;45.188;5.712;2023-02-18T01:32:01;100690.72;;;12.84;49.21
71795;BME280;59641;45.188;5.712;2023-02-18T01:34:27;100684.50;;;12.83;49.30
71795;BME280;59641;45.188;5.712;2023-02-18T01:36:52;100690.53;;;12.85;49.12
71795;BME280;59641;45.188;5.712;2023-02-18T01:39:18;100690.94;;;12.82;48.96
71795;BME280;59641;45.188;5.712;2023-02-18T01:41:43;100696.50;;;12.81;48.79
71795;BME280;59641;45.188;5.712;2023-02-18T01:44:21;100692.38;;;12.78;48.92
71795;BME280;59641;45.188;5.712;2023-02-18T01:46:47;100685.72;;;12.74;48.99
71795;BME280;59641;45.188;5.712;2023-02-18T01:49:16;100689.66;;;12.71;49.10
71795;BME280;59641;45.188;5.712;2023-02-18T01:51:50;100677.22;;;12.70;48.98
71795;BME280;59641;45.188;5.712;2023-02-18T01:56:55;100681.53;;;12.65;49.03
71795;BME280;59641;45.188;5.712;2023-02-18T01:59:45;100684.44;;;12.63;49.01
71795;BME280;59641;45.188;5.712;2023-02-18T02:02:16;100685.69;;;12.61;48.93
71795;BME280;59641;45.188;5.712;2023-02-18T02:04:42;100687.50;;;12.60;49.18
71795;BME280;59641;45.188;5.712;2023-02-18T02:07:09;100687.50;;;12.60;48.92
71795;BME280;59641;45.188;5.712;2023-02-18T02:09:35;100687.72;;;12.58;48.85
71795;BME280;59641;45.188;5.712;2023-02-18T02:25:39;100680.00;;;12.42;49.24
71795;BME280;59641;45.188;5.712;2023-02-18T02:36:46;100675.66;;;12.41;49.41
71795;BME280;59641;45.188;5.712;2023-02-18T02:40:09;100676.84;;;12.39;49.25
71795;BME280;59641;45.188;5.712;2023-02-18T02:42:28;100677.91;;;12.38;49.56
71795;BME280;59641;45.188;5.712;2023-02-18T02:45:03;100678.94;;;12.36;49.33
71795;BME280;59641;45.188;5.712;2023-02-18T02:52:51;100673.78;;;12.42;49.69
71795;BME280;59641;45.188;5.712;2023-02-18T02:55:19;100677.13;;;12.44;49.52
71795;BME280;59641;45.188;5.712;2023-02-18T02:57:48;100680.41;;;12.46;49.39
71795;BME280;59641;45.188;5.712;2023-02-18T03:00:16;100678.56;;;12.46;49.38
71795;BME280;59641;45.188;5.712;2023-02-18T03:05:42;100676.28;;;12.50;49.53
71795;BME280;59641;45.188;5.712;2023-02-18T03:08:36;100669.69;;;12.52;49.52
71795;BME280;59641;45.188;5.712;2023-02-18T03:11:07;100674.25;;;12.52;49.52
71795;BME280;59641;45.188;5.712;2023-02-18T03:17:08;100670.91;;;12.50;49.55
71795;BME280;59641;45.188;5.712;2023-02-18T03:19:19;100666.97;;;12.52;49.36
71795;BME280;59641;45.188;5.712;2023-02-18T03:21:52;100666.16;;;12.52;49.54
71795;BME280;59641;45.188;5.712;2023-02-18T03:24:37;100664.75;;;12.56;49.30
71795;BME280;59641;45.188;5.712;2023-02-18T03:27:11;100664.94;;;12.54;49.55
71795;BME280;59641;45.188;5.712;2023-02-18T03:29:39;100665.13;;;12.53;49.32
71795;BME280;59641;45.188;5.712;2023-02-18T03:32:09;100658.91;;;12.52;49.37
71795;BME280;59641;45.188;5.712;2023-02-18T03:34:41;100660.13;;;12.50;49.46
71795;BME280;59641;45.188;5.712;2023-02-18T03:37:10;100667.41;;;12.49;49.59
71795;BME280;59641;45.188;5.712;2023-02-18T03:39:38;100658.69;;;12.47;49.47
71795;BME280;59641;45.188;5.712;2023-02-18T03:42:05;100665.94;;;12.47;49.52
71795;BME280;59641;45.188;5.712;2023-02-18T03:44:31;100674.19;;;12.45;49.54
71795;BME280;59641;45.188;5.712;2023-02-18T03:46:57;100669.41;;;12.41;49.65
71795;BME280;59641;45.188;5.712;2023-02-18T03:49:22;100669.81;;;12.38;49.59
71795;BME280;59641;45.188;5.712;2023-02-18T03:51:48;100662.97;;;12.35;49.64
71795;BME280;59641;45.188;5.712;2023-02-18T03:54:13;100660.69;;;12.32;49.54
71795;BME280;59641;45.188;5.712;2023-02-18T03:56:39;100661.94;;;12.29;49.77
71795;BME280;59641;45.188;5.712;2023-02-18T03:59:04;100660.84;;;12.24;49.76
71795;BME280;59641;45.188;5.712;2023-02-18T04:01:30;100660.84;;;12.24;49.81
71795;BME280;59641;45.188;5.712;2023-02-18T04:03:55;100660.19;;;12.22;49.89
71795;BME280;59641;45.188;5.712;2023-02-18T04:06:22;100661.06;;;12.22;49.66
71795;BME280;59641;45.188;5.712;2023-02-18T04:08:48;100664.75;;;12.21;50.02
71795;BME280;59641;45.188;5.712;2023-02-18T04:11:14;100670.97;;;12.22;50.07
71795;BME280;59641;45.188;5.712;2023-02-18T04:13:39;100671.19;;;12.20;49.68
71795;BME280;59641;45.188;5.712;2023-02-18T04:16:05;100669.91;;;12.16;49.66
71795;BME280;59641;45.188;5.712;2023-02-18T04:18:30;100668.44;;;12.13;49.83
71795;BME280;59641;45.188;5.712;2023-02-18T04:20:56;100664.94;;;12.13;49.84
71795;BME280;59641;45.188;5.712;2023-02-18T04:23:21;100664.94;;;12.13;49.90
71795;BME280;59641;45.188;5.712;2023-02-18T04:25:47;100671.91;;;12.07;50.03
71795;BME280;59641;45.188;5.712;2023-02-18T04:28:13;100664.03;;;11.99;50.08
71795;BME280;59641;45.188;5.712;2023-02-18T04:30:40;100666.91;;;11.98;50.48
71795;BME280;59641;45.188;5.712;2023-02-18T04:33:05;100671.44;;;11.97;50.15
71795;BME280;59641;45.188;5.712;2023-02-18T04:35:31;100672.50;;;11.96;50.13
71795;BME280;59641;45.188;5.712;2023-02-18T04:37:56;100674.53;;;11.94;50.10
71795;BME280;59641;45.188;5.712;2023-02-18T04:40:21;100666.88;;;11.91;50.21
71795;BME280;59641;45.188;5.712;2023-02-18T04:42:49;100666.59;;;11.86;50.44
71795;BME280;59641;45.188;5.712;2023-02-18T04:45:14;100670.31;;;11.85;50.63
71795;BME280;59641;45.188;5.712;2023-02-18T04:47:40;100665.50;;;11.80;50.39
71795;BME280;59641;45.188;5.712;2023-02-18T04:50:06;100668.41;;;11.79;50.45
71795;BME280;59641;45.188;5.712;2023-02-18T04:52:31;100665.09;;;11.77;50.28
71795;BME280;59641;45.188;5.712;2023-02-18T04:54:57;100672.31;;;11.76;50.87
71795;BME280;59641;45.188;5.712;2023-02-18T04:57:22;100674.56;;;11.72;50.59
71795;BME280;59641;45.188;5.712;2023-02-18T04:59:47;100674.31;;;11.67;50.47
71795;BME280;59641;45.188;5.712;2023-02-18T05:02:13;100676.53;;;11.64;50.71
71795;BME280;59641;45.188;5.712;2023-02-18T05:04:38;100675.53;;;11.65;50.77
71795;BME280;59641;45.188;5.712;2023-02-18T05:07:03;100675.72;;;11.63;51.01
71795;BME280;59641;45.188;5.712;2023-02-18T05:09:29;100673.25;;;11.62;50.87
71795;BME280;59641;45.188;5.712;2023-02-18T05:11:54;100675.94;;;11.62;51.02
71795;BME280;59641;45.188;5.712;2023-02-18T05:14:20;100683.38;;;11.60;51.16
71795;BME280;59641;45.188;5.712;2023-02-18T05:16:45;100680.69;;;11.60;51.15
71795;BME280;59641;45.188;5.712;2023-02-18T05:19:14;100683.16;;;11.61;51.06
71795;BME280;59641;45.188;5.712;2023-02-18T05:21:39;100679.63;;;11.61;50.90
71795;BME280;59641;45.188;5.712;2023-02-18T05:24:05;100673.63;;;11.59;51.05
71795;BME280;59641;45.188;5.712;2023-02-18T05:26:31;100669.72;;;11.61;51.13
71795;BME280;59641;45.188;5.712;2023-02-18T05:28:56;100665.59;;;11.65;50.91
71795;BME280;59641;45.188;5.712;2023-02-18T05:31:22;100662.91;;;11.65;51.18
71795;BME280;59641;45.188;5.712;2023-02-18T05:33:47;100663.38;;;11.69;50.92
71795;BME280;59641;45.188;5.712;2023-02-18T05:36:12;100657.78;;;11.70;51.16
71795;BME280;59641;45.188;5.712;2023-02-18T05:38:38;100654.50;;;11.75;51.01
71795;BME280;59641;45.188;5.712;2023-02-18T05:41:03;100655.97;;;11.78;50.98
71795;BME280;59641;45.188;5.712;2023-02-18T05:43:29;100660.94;;;11.81;50.76
71795;BME280;59641;45.188;5.712;2023-02-18T05:45:54;100659.31;;;11.80;51.04
71795;BME280;59641;45.188;5.712;2023-02-18T05:48:20;100663.88;;;11.79;50.96
71795;BME280;59641;45.188;5.712;2023-02-18T05:50:45;100658.25;;;11.81;50.87
71795;BME280;59641;45.188;5.712;2023-02-18T05:53:10;100659.72;;;11.77;50.81
71795;BME280;59641;45.188;5.712;2023-02-18T05:55:36;100655.75;;;11.72;50.82
71795;BME280;59641;45.188;5.712;2023-02-18T05:58:04;100652.81;;;11.67;50.84
71795;BME280;59641;45.188;5.712;2023-02-18T06:00:30;100657.31;;;11.60;50.78
71795;BME280;59641;45.188;5.712;2023-02-18T06:02:56;100658.53;;;11.58;51.10
71795;BME280;59641;45.188;5.712;2023-02-18T06:05:22;100659.09;;;11.53;51.20
71795;BME280;59641;45.188;5.712;2023-02-18T06:07:47;100659.28;;;11.51;51.15
71795;BME280;59641;45.188;5.712;2023-02-18T06:10:12;100669.41;;;11.49;51.23
71795;BME280;59641;45.188;5.712;2023-02-18T06:12:38;100661.34;;;11.49;51.02
71795;BME280;59641;45.188;5.712;2023-02-18T06:15:03;100663.78;;;11.44;51.25
71795;BME280;59641;45.188;5.712;2023-02-18T06:17:29;100658.97;;;11.40;51.67
71795;BME280;59641;45.188;5.712;2023-02-18T06:19:54;100662.06;;;11.37;51.30
71795;BME280;59641;45.188;5.712;2023-02-18T06:22:20;100667.63;;;11.35;51.58
71795;BME280;59641;45.188;5.712;2023-02-18T06:24:46;100668.00;;;11.32;51.64
71795;BME280;59641;45.188;5.712;2023-02-18T06:27:11;100666.53;;;11.29;51.80
71795;BME280;59641;45.188;5.712;2023-02-18T06:29:37;100667.75;;;11.27;51.53
71795;BME280;59641;45.188;5.712;2023-02-18T06:32:02;100669.63;;;11.26;51.71
71795;BME280;59641;45.188;5.712;2023-02-18T06:34:28;100661.56;;;11.26;51.73
71795;BME280;59641;45.188;5.712;2023-02-18T06:36:53;100663.88;;;11.29;51.77
71795;BME280;59641;45.188;5.712;2023-02-18T06:39:19;100667.19;;;11.32;51.86
71795;BME280;59641;45.188;5.712;2023-02-18T06:41:44;100666.44;;;11.38;51.49
71795;BME280;59641;45.188;5.712;2023-02-18T06:44:09;100672.81;;;11.37;51.60
71795;BME280;59641;45.188;5.712;2023-02-18T06:46:36;100674.69;;;11.36;51.49
71795;BME280;59641;45.188;5.712;2023-02-18T06:49:02;100667.63;;;11.35;51.62
71795;BME280;59641;45.188;5.712;2023-02-18T06:51:27;100677.53;;;11.35;51.54
71795;BME280;59641;45.188;5.712;2023-02-18T06:53:53;100675.69;;;11.35;51.50
71795;BME280;59641;45.188;5.712;2023-02-18T06:56:18;100682.28;;;11.33;51.59
71795;BME280;59641;45.188;5.712;2023-02-18T06:58:44;100678.13;;;11.30;51.68
71795;BME280;59641;45.188;5.712;2023-02-18T07:01:09;100683.06;;;11.26;51.58
71795;BME280;59641;45.188;5.712;2023-02-18T07:03:34;100682.41;;;11.24;51.64
71795;BME280;59641;45.188;5.712;2023-02-18T07:06:00;100687.16;;;11.22;51.79
71795;BME280;59641;45.188;5.712;2023-02-18T07:08:25;100685.28;;;11.23;51.96
71795;BME280;59641;45.188;5.712;2023-02-18T07:10:51;100691.06;;;11.20;51.85
71795;BME280;59641;45.188;5.712;2023-02-18T07:13:16;100689.00;;;11.22;51.87
71795;BME280;59641;45.188;5.712;2023-02-18T07:15:41;100692.53;;;11.22;51.87
71795;BME280;59641;45.188;5.712;2023-02-18T07:18:07;100689.00;;;11.22;51.92
71795;BME280;59641;45.188;5.712;2023-02-18T07:20:32;100695.22;;;11.22;51.79
71795;BME280;59641;45.188;5.712;2023-02-18T07:22:58;100695.59;;;11.19;51.69
71795;BME280;59641;45.188;5.712;2023-02-18T07:25:24;100689.56;;;11.17;51.76
71795;BME280;59641;45.188;5.712;2023-02-18T07:27:50;100691.84;;;11.14;51.85
71795;BME280;59641;45.188;5.712;2023-02-18T07:30:15;100693.66;;;11.13;51.96
71795;BME280;59641;45.188;5.712;2023-02-18T07:32:41;100689.75;;;11.16;52.01
71795;BME280;59641;45.188;5.712;2023-02-18T07:35:07;100691.44;;;11.17;51.81
71795;BME280;59641;45.188;5.712;2023-02-18T07:37:34;100699.50;;;11.17;51.77
71795;BME280;59641;45.188;5.712;2023-02-18T07:39:59;100689.56;;;11.17;51.76
71795;BME280;59641;45.188;5.712;2023-02-18T07:42:25;100696.59;;;11.18;51.66
71795;BME280;59641;45.188;5.712;2023-02-18T07:44:50;100701.06;;;11.11;51.62
71795;BME280;59641;45.188;5.712;2023-02-18T07:47:16;100691.75;;;11.07;51.87
71795;BME280;59641;45.188;5.712;2023-02-18T07:49:45;100690.72;;;11.08;51.70
71795;BME280;59641;45.188;5.712;2023-02-18T07:52:12;100691.38;;;11.10;51.80
71795;BME280;59641;45.188;5.712;2023-02-18T07:54:38;100692.59;;;11.07;51.79
71795;BME280;59641;45.188;5.712;2023-02-18T07:57:03;100698.59;;;11.09;51.88
71795;BME280;59641;45.188;5.712;2023-02-18T07:59:29;100695.91;;;11.09;51.93
71795;BME280;59641;45.188;5.712;2023-02-18T08:01:54;100693.88;;;11.12;51.65
71795;BME280;59641;45.188;5.712;2023-02-18T08:04:20;100696.81;;;11.17;51.91
71795;BME280;59641;45.188;5.712;2023-02-18T08:06:47;100696.25;;;11.21;51.87
71795;BME280;59641;45.188;5.712;2023-02-18T08:09:15;100687.22;;;11.29;51.69
71795;BME280;59641;45.188;5.712;2023-02-18T08:11:41;100687.47;;;11.34;51.75
71795;BME280;59641;45.188;5.712;2023-02-18T08:14:07;100693.91;;;11.40;51.57
71795;BME280;59641;45.188;5.712;2023-02-18T08:16:33;100690.66;;;11.44;51.14
71795;BME280;59641;45.188;5.712;2023-02-18T08:18:59;100692.97;;;11.47;51.39
71795;BME280;59641;45.188;5.712;2023-02-18T08:21:25;100689.50;;;11.54;51.35
71795;BME280;59641;45.188;5.712;2023-02-18T08:23:51;100689.75;;;11.59;51.20
71795;BME280;59641;45.188;5.712;2023-02-18T08:26:17;100686.28;;;11.65;50.97
71795;BME280;59641;45.188;5.712;2023-02-18T08:28:45;100693.13;;;11.67;50.94
71795;BME280;59641;45.188;5.712;2023-02-18T08:31:23;100681.34;;;11.68;50.77
71795;BME280;59641;45.188;5.712;2023-02-18T08:33:49;100687.81;;;11.74;50.78
71795;BME280;59641;45.188;5.712;2023-02-18T08:36:15;100690.13;;;11.77;50.91
71795;BME280;59641;45.188;5.712;2023-02-18T08:38:41;100683.69;;;11.78;50.59
71795;BME280;59641;45.188;5.712;2023-02-18T08:41:07;100694.66;;;11.77;50.65
71795;BME280;59641;45.188;5.712;2023-02-18T08:43:33;100691.75;;;11.78;50.99
71795;BME280;59641;45.188;5.712;2023-02-18T08:45:59;100696.56;;;11.83;50.70
71795;BME280;59641;45.188;5.712;2023-02-18T08:48:26;100702.41;;;11.86;50.70
71795;BME280;59641;45.188;5.712;2023-02-18T08:50:51;100700.81;;;11.92;50.68
71795;BME280;59641;45.188;5.712;2023-02-18T08:53:17;100700.63;;;11.93;50.73
71795;BME280;59641;45.188;5.712;2023-02-18T08:55:43;100690.28;;;11.97;50.75
71795;BME280;59641;45.188;5.712;2023-02-18T08:58:09;100697.75;;;12.02;50.44
71795;BME280;59641;45.188;5.712;2023-02-18T09:00:35;100690.56;;;12.09;50.15
71795;BME280;59641;45.188;5.712;2023-02-18T09:03:00;100689.97;;;12.13;50.59
71795;BME280;59641;45.188;5.712;2023-02-18T09:05:26;100687.53;;;12.19;50.61
71795;BME280;59641;45.188;5.712;2023-02-18T09:07:51;100677.63;;;12.26;50.41
71795;BME280;59641;45.188;5.712;2023-02-18T09:10:17;100679.53;;;12.32;50.47
71795;BME280;59641;45.188;5.712;2023-02-18T09:12:42;100678.94;;;12.36;50.40
71795;BME280;59641;45.188;5.712;2023-02-18T09:15:08;100678.94;;;12.43;50.22
71795;BME280;59641;45.188;5.712;2023-02-18T09:17:33;100676.28;;;12.50;50.24
71795;BME280;59641;45.188;5.712;2023-02-18T09:19:59;100674.47;;;12.57;49.94
71795;BME280;59641;45.188;5.712;2023-02-18T09:22:25;100675.72;;;12.61;49.90
71795;BME280;59641;45.188;5.712;2023-02-18T09:24:50;100665.19;;;12.66;49.86
71795;BME280;59641;45.188;5.712;2023-02-18T09:27:15;100664.38;;;12.72;49.92
71795;BME280;59641;45.188;5.712;2023-02-18T09:29:41;100666.25;;;12.78;49.73
71795;BME280;59641;45.188;5.712;2023-02-18T09:32:08;100667.28;;;12.84;49.75
71795;BME280;59641;45.188;5.712;2023-02-18T09:34:34;100664.63;;;12.91;49.61
71795;BME280;59641;45.188;5.712;2023-02-18T09:37:00;100664.84;;;12.96;49.30
71795;BME280;59641;45.188;5.712;2023-02-18T09:39:25;100661.34;;;13.02;49.40
71795;BME280;59641;45.188;5.712;2023-02-18T09:41:59;100662.19;;;13.09;49.25
71795;BME280;59641;45.188;5.712;2023-02-18T09:44:36;100658.66;;;13.15;49.10
71795;BME280;59641;45.188;5.712;2023-02-18T09:47:09;100659.09;;;13.19;48.67
71795;BME280;59641;45.188;5.712;2023-02-18T09:49:40;100654.75;;;13.25;48.70
71795;BME280;59641;45.188;5.712;2023-02-18T09:52:27;100655.59;;;13.32;48.58
71795;BME280;59641;45.188;5.712;2023-02-18T09:54:54;100662.88;;;13.38;48.53
71795;BME280;59641;45.188;5.712;2023-02-18T09:57:38;100653.75;;;13.39;48.27
71795;BME280;59641;45.188;5.712;2023-02-18T10:00:18;100653.56;;;13.40;48.19
71795;BME280;59641;45.188;5.712;2023-02-18T10:05:15;100646.09;;;13.42;47.99
71795;BME280;59641;45.188;5.712;2023-02-18T10:07:41;100636.53;;;13.47;47.99
71795;BME280;59641;45.188;5.712;2023-02-18T10:10:30;100641.72;;;13.55;47.90
71795;BME280;59641;45.188;5.712;2023-02-18T10:12:59;100630.50;;;13.58;47.85
71795;BME280;59641;45.188;5.712;2023-02-18T10:15:29;100635.28;;;13.62;47.62
71795;BME280;59641;45.188;5.712;2023-02-18T10:17:56;100627.59;;;13.66;47.65
71795;BME280;59641;45.188;5.712;2023-02-18T10:20:26;100628.22;;;13.68;47.52
71795;BME280;59641;45.188;5.712;2023-02-18T10:22:56;100622.63;;;13.70;47.69
71795;BME280;59641;45.188;5.712;2023-02-18T10:25:23;100627.59;;;13.73;47.88
71795;BME280;59641;45.188;5.712;2023-02-18T10:27:52;100625.09;;;13.78;47.85
71795;BME280;59641;45.188;5.712;2023-02-18T10:30:29;100618.88;;;13.84;48.25
71795;BME280;59641;45.188;5.712;2023-02-18T10:33:09;100617.19;;;13.90;47.78
71795;BME280;59641;45.188;5.712;2023-02-18T10:36:13;100611.97;;;13.95;47.99
71795;BME280;59641;45.188;5.712;2023-02-18T10:41:33;100607.41;;;14.02;47.52
71795;BME280;59641;45.188;5.712;2023-02-18T10:44:09;100608.00;;;14.04;47.97
71795;BME280;59641;45.188;5.712;2023-02-18T10:52:17;100603.59;;;14.23;47.87
71795;BME280;59641;45.188;5.712;2023-02-18T10:54:52;100596.09;;;14.32;47.85
71795;BME280;59641;45.188;5.712;2023-02-18T10:57:23;100596.28;;;14.37;48.17
71795;BME280;59641;45.188;5.712;2023-02-18T11:00:00;100594.56;;;14.42;48.18
71795;BME280;59641;45.188;5.712;2023-02-18T11:02:35;100589.34;;;14.47;48.14
71795;BME280;59641;45.188;5.712;2023-02-18T11:05:15;100587.88;;;14.52;47.72
71795;BME280;59641;45.188;5.712;2023-02-18T11:07:46;100587.69;;;14.53;47.55
71795;BME280;59641;45.188;5.712;2023-02-18T11:10:18;100572.72;;;14.57;48.04
71795;BME280;59641;45.188;5.712;2023-02-18T11:13:00;100571.25;;;14.61;48.12
71795;BME280;59641;45.188;5.712;2023-02-18T11:15:27;100569.53;;;14.67;48.16
71795;BME280;59641;45.188;5.712;2023-02-18T11:18:04;100563.47;;;14.72;48.13
71795;BME280;59641;45.188;5.712;2023-02-18T11:20:37;100555.78;;;14.75;48.26
71795;BME280;59641;45.188;5.712;2023-02-18T11:25:33;100553.44;;;14.85;48.27
71795;BME280;59641;45.188;5.712;2023-02-18T11:28:03;100547.38;;;14.90;48.49
71795;BME280;59641;45.188;5.712;2023-02-18T11:30:33;100546.50;;;14.96;48.26
71795;BME280;59641;45.188;5.712;2023-02-18T11:33:09;100541.25;;;15.01;48.04
71795;BME280;59641;45.188;5.712;2023-02-18T11:35:38;100538.09;;;15.04;47.84
71795;BME280;59641;45.188;5.712;2023-02-18T11:38:23;100543.66;;;15.09;47.68
71795;BME280;59641;45.188;5.712;2023-02-18T11:41:07;100535.56;;;15.09;47.66
71795;BME280;59641;45.188;5.712;2023-02-18T11:43:34;100528.88;;;15.12;47.99
71795;BME280;59641;45.188;5.712;2023-02-18T11:46:13;100526.34;;;15.17;47.71
71795;BME280;59641;45.188;5.712;2023-02-18T11:48:39;100521.94;;;15.23;47.77
71795;BME280;59641;45.188;5.712;2023-02-18T11:51:05;100508.59;;;15.28;47.56
71795;BME280;59641;45.188;5.712;2023-02-18T11:53:38;100505.22;;;15.32;47.54
71795;BME280;59641;45.188;5.712;2023-02-18T11:56:09;100494.75;;;15.36;47.53
71795;BME280;59641;45.188;5.712;2023-02-18T11:58:43;100497.41;;;15.43;47.32
71795;BME280;59641;45.188;5.712;2023-02-18T12:01:35;100486.72;;;15.48;47.53
71795;BME280;59641;45.188;5.712;2023-02-18T12:04:11;100491.69;;;15.51;47.23
71795;BME280;59641;45.188;5.712;2023-02-18T12:10:18;100491.41;;;15.59;47.47
71795;BME280;59641;45.188;5.712;2023-02-18T12:12:27;100485.53;;;15.62;47.44
71795;BME280;59641;45.188;5.712;2023-02-18T12:14:55;100490.47;;;15.65;47.72
71795;BME280;59641;45.188;5.712;2023-02-18T12:23:07;100480.97;;;15.81;48.14
71795;BME280;59641;45.188;5.712;2023-02-18T12:39:58;100442.34;;;16.04;48.41
71795;BME280;59641;45.188;5.712;2023-02-18T12:45:52;100435.94;;;16.17;49.29
71795;BME280;59641;45.188;5.712;2023-02-18T12:51:13;100437.50;;;16.25;49.33
71795;BME280;59641;45.188;5.712;2023-02-18T12:54:56;100427.84;;;16.29;49.26
71795;BME280;59641;45.188;5.712;2023-02-18T12:57:03;100419.03;;;16.33;49.76
71795;BME280;59641;45.188;5.712;2023-02-18T12:59:43;100418.34;;;16.38;49.59
71795;BME280;59641;45.188;5.712;2023-02-18T13:05:43;100408.78;;;16.47;49.37
71795;BME280;59641;45.188;5.712;2023-02-18T13:14:26;100398.44;;;16.56;49.22
71795;BME280;59641;45.188;5.712;2023-02-18T13:16:55;100387.84;;;16.54;49.47
71795;BME280;59641;45.188;5.712;2023-02-18T13:19:29;100387.38;;;16.57;49.11
71795;BME280;59641;45.188;5.712;2023-02-18T13:22:03;100374.66;;;16.58;49.58
71795;BME280;59641;45.188;5.712;2023-02-18T13:24:33;100369.84;;;16.60;49.16
71795;BME280;59641;45.188;5.712;2023-02-18T13:40:32;100361.13;;;16.70;49.01
71795;BME280;59641;45.188;5.712;2023-02-18T13:43:18;100345.44;;;16.72;49.33
71795;BME280;59641;45.188;5.712;2023-02-18T13:48:29;100340.59;;;16.74;49.11
71795;BME280;59641;45.188;5.712;2023-02-18T13:51:04;100340.38;;;16.75;49.29
71795;BME280;59641;45.188;5.712;2023-02-18T13:53:34;100332.63;;;16.79;49.17
71795;BME280;59641;45.188;5.712;2023-02-18T13:56:09;100332.38;;;16.80;49.15
71795;BME280;59641;45.188;5.712;2023-02-18T13:58:53;100324.63;;;16.84;49.21
71795;BME280;59641;45.188;5.712;2023-02-18T14:03:59;100319.19;;;16.84;48.96
71795;BME280;59641;45.188;5.712;2023-02-18T14:06:33;100305.38;;;16.86;49.11
71795;BME280;59641;45.188;5.712;2023-02-18T14:09:33;100306.22;;;16.86;48.92
71795;BME280;59641;45.188;5.712;2023-02-18T14:11:54;100302.66;;;16.86;49.10
71795;BME280;59641;45.188;5.712;2023-02-18T14:25:38;100277.22;;;16.87;49.32
71795;BME280;59641;45.188;5.712;2023-02-18T14:28:33;100288.06;;;16.87;49.10
71795;BME280;59641;45.188;5.712;2023-02-18T14:30:50;100278.88;;;16.88;49.02
71795;BME280;59641;45.188;5.712;2023-02-18T14:33:17;100275.09;;;16.89;49.39
71795;BME280;59641;45.188;5.712;2023-02-18T14:35:56;100270.00;;;16.92;49.12
71795;BME280;59641;45.188;5.712;2023-02-18T14:47:05;100260.56;;;16.95;49.11
71795;BME280;59641;45.188;5.712;2023-02-18T14:49:42;100261.41;;;16.95;49.19
71795;BME280;59641;45.188;5.712;2023-02-18T14:52:29;100254.34;;;16.94;49.38
71795;BME280;59641;45.188;5.712;2023-02-18T14:54:57;100255.41;;;16.93;49.06
71795;BME280;59641;45.188;5.712;2023-02-18T14:57:32;100256.22;;;16.94;49.40
71795;BME280;59641;45.188;5.712;2023-02-18T14:59:59;100244.81;;;16.92;49.34
71795;BME280;59641;45.188;5.712;2023-02-18T15:02:27;100249.41;;;16.91;49.41
71795;BME280;59641;45.188;5.712;2023-02-18T15:05:11;100242.09;;;16.92;49.20
71795;BME280;59641;45.188;5.712;2023-02-18T15:07:37;100242.31;;;16.90;49.03